Time,TemperatureF,DewpointF,PressureIn,WindDirection,WindDirectionDegrees,WindSpeedMPH,WindSpeedGustMPH,Humidity,HourlyPrecipIn,Conditions,Clouds,dailyrainin,SoftwareType,DateUTC
2013-01-04 00:01:00,35.6,35.1,30.23,SSE,158,0.0,0.0,98,0.00,,,0.23,Wunderground v.1.15,2013-01-04 08:01:00,
2013-01-04 00:11:00,35.6,35.3,30.24,SSE,158,0.0,0.0,99,0.00,,,0.01,Wunderground v.1.15,2013-01-04 08:11:00,
2013-01-04 00:21:00,35.6,35.3,30.24,SSE,158,0.0,0.0,99,0.05,,,0.02,Wunderground v.1.15,2013-01-04 08:21:00,
2013-01-04 00:30:00,35.8,35.5,30.24,SSE,158,0.0,1.0,99,0.04,,,0.02,Wunderground v.1.15,2013-01-04 08:30:00,
2013-01-04 00:35:00,35.8,35.5,30.24,SSE,158,0.0,1.0,99,0.00,,,0.03,Wunderground v.1.15,2013-01-04 08:35:00,
2013-01-04 00:41:00,35.8,35.5,30.24,SSE,158,0.0,0.0,99,0.00,,,0.03,Wunderground v.1.15,2013-01-04 08:41:00,
2013-01-04 00:51:00,35.8,35.5,30.25,SSE,158,0.0,0.0,99,0.04,,,0.03,Wunderground v.1.15,2013-01-04 08:51:00,
2013-01-04 01:00:00,35.8,35.5,30.25,SSE,158,0.0,0.0,99,0.04,,,0.04,Wunderground v.1.15,2013-01-04 09:00:00,
2013-01-04 01:06:00,35.6,35.3,30.25,SSE,158,0.0,0.0,99,0.04,,,0.04,Wunderground v.1.15,2013-01-04 09:06:00,
2013-01-04 01:16:00,35.6,35.3,30.25,SSE,158,0.0,0.0,99,0.00,,,0.05,Wunderground v.1.15,2013-01-04 09:16:00,
2013-01-04 01:25:00,35.8,35.5,30.25,SSE,158,0.0,0.0,99,0.00,,,0.05,Wunderground v.1.15,2013-01-04 09:25:00,
2013-01-04 01:31:00,35.8,35.5,30.25,SSE,158,0.0,0.0,99,0.00,,,0.05,Wunderground v.1.15,2013-01-04 09:31:00,
2013-01-04 01:36:00,35.8,35.5,30.26,SSE,158,0.0,0.0,99,0.00,,,0.05,Wunderground v.1.15,2013-01-04 09:36:00,
2013-01-04 01:46:00,35.9,35.6,30.26,SSE,158,0.0,0.0,99,0.00,,,0.05,Wunderground v.1.15,2013-01-04 09:46:00,
2013-01-04 01:51:00,35.9,35.6,30.26,SSE,158,0.0,0.0,99,0.00,,,0.05,Wunderground v.1.15,2013-01-04 09:51:00,
2013-01-04 02:01:00,36.0,35.7,30.26,SSE,158,0.0,0.0,99,0.00,,,0.05,Wunderground v.1.15,2013-01-04 10:01:00,
2013-01-04 02:11:00,36.2,35.9,30.27,SSE,158,0.0,0.0,99,0.00,,,0.06,Wunderground v.1.15,2013-01-04 10:11:00,
2013-01-04 02:21:00,36.5,36.2,30.27,SSE,158,0.0,0.0,99,0.05,,,0.07,Wunderground v.1.15,2013-01-04 10:21:00,
2013-01-04 02:26:00,36.5,36.2,30.27,SSE,158,0.0,0.0,99,0.05,,,0.07,Wunderground v.1.15,2013-01-04 10:26:00,
2013-01-04 02:35:00,36.6,36.3,30.27,SSE,158,0.0,0.0,99,0.04,,,0.07,Wunderground v.1.15,2013-01-04 10:35:00,
2013-01-04 02:41:00,36.8,36.5,30.27,SSE,158,0.0,0.0,99,0.00,,,0.08,Wunderground v.1.15,2013-01-04 10:41:00,
2013-01-04 02:46:00,36.9,36.6,30.27,East,92,0.0,0.0,99,0.00,,,0.08,Wunderground v.1.15,2013-01-04 10:46:00,
2013-01-04 02:56:00,37.0,36.7,30.28,NE,52,0.0,0.0,99,0.00,,,0.08,Wunderground v.1.15,2013-01-04 10:56:00,
2013-01-04 03:00:00,37.0,36.7,30.28,NE,52,0.0,0.0,99,0.00,,,0.08,Wunderground v.1.15,2013-01-04 11:00:00,
2013-01-04 03:10:00,37.2,36.9,30.28,SW,230,0.0,0.0,99,0.00,,,0.08,Wunderground v.1.15,2013-01-04 11:10:00,
2013-01-04 03:21:00,37.2,36.9,30.28,SW,227,0.0,1.0,99,0.00,,,0.08,Wunderground v.1.15,2013-01-04 11:21:00,
2013-01-04 03:31:00,37.2,36.9,30.28,South,191,0.0,0.0,99,0.00,,,0.08,Wunderground v.1.15,2013-01-04 11:31:00,
2013-01-04 03:40:00,37.3,37.0,30.29,NNW,339,0.0,1.0,99,0.00,,,0.08,Wunderground v.1.15,2013-01-04 11:40:00,
2013-01-04 03:46:00,37.3,37.0,30.29,NNW,339,0.0,1.0,99,0.00,,,0.08,Wunderground v.1.15,2013-01-04 11:46:00,
2013-01-04 03:56:00,37.3,37.0,30.29,NNW,340,0.0,0.0,99,0.00,,,0.08,Wunderground v.1.15,2013-01-04 11:56:00,
2013-01-04 04:06:00,37.5,37.2,30.28,NNW,340,0.0,0.0,99,0.00,,,0.08,Wunderground v.1.15,2013-01-04 12:06:00,
2013-01-04 04:16:00,37.6,37.3,30.28,NNW,340,1.0,1.0,99,0.00,,,0.08,Wunderground v.1.15,2013-01-04 12:16:00,
2013-01-04 04:21:00,37.8,37.5,30.28,North,352,1.0,1.0,99,0.00,,,0.08,Wunderground v.1.15,2013-01-04 12:21:00,
2013-01-04 04:31:00,38.2,37.9,30.28,East,85,1.0,1.0,99,0.00,,,0.08,Wunderground v.1.15,2013-01-04 12:31:00,
2013-01-04 04:36:00,38.5,38.2,30.29,ENE,68,1.0,1.0,99,0.00,,,0.08,Wunderground v.1.15,2013-01-04 12:36:00,
2013-01-04 04:46:00,38.6,38.3,30.29,ENE,59,0.0,1.0,99,0.00,,,0.08,Wunderground v.1.15,2013-01-04 12:46:00,
2013-01-04 04:55:00,38.6,38.3,30.29,SSE,167,1.0,2.0,99,0.00,,,0.08,Wunderground v.1.15,2013-01-04 12:55:00,
2013-01-04 05:06:00,38.5,38.2,30.29,North,354,1.0,1.0,99,0.00,,,0.08,Wunderground v.1.15,2013-01-04 13:06:00,
2013-01-04 05:16:00,38.3,38.0,30.29,East,89,0.0,0.0,99,0.00,,,0.08,Wunderground v.1.15,2013-01-04 13:16:00,
2013-01-04 05:21:00,38.3,38.0,30.30,East,89,0.0,0.0,99,0.00,,,0.08,Wunderground v.1.15,2013-01-04 13:21:00,
2013-01-04 05:31:00,38.3,38.0,30.30,East,89,0.0,0.0,99,0.00,,,0.08,Wunderground v.1.15,2013-01-04 13:31:00,
2013-01-04 05:41:00,38.5,38.2,30.30,ENE,76,0.0,0.0,99,0.00,,,0.08,Wunderground v.1.15,2013-01-04 13:41:00,
2013-01-04 05:51:00,38.6,38.3,30.30,ENE,76,0.0,0.0,99,0.00,,,0.08,Wunderground v.1.15,2013-01-04 13:51:00,
2013-01-04 06:00:00,38.8,38.5,30.30,North,352,0.0,1.0,99,0.00,,,0.08,Wunderground v.1.15,2013-01-04 14:00:00,
2013-01-04 06:06:00,38.9,38.6,30.31,North,352,0.0,1.0,99,0.00,,,0.08,Wunderground v.1.15,2013-01-04 14:06:00,
2013-01-04 06:16:00,38.9,38.6,30.31,North,352,0.0,0.0,99,0.00,,,0.08,Wunderground v.1.15,2013-01-04 14:16:00,
2013-01-04 06:26:00,39.1,39.1,30.31,North,352,0.0,0.0,100,0.00,,,0.08,Wunderground v.1.15,2013-01-04 14:26:00,
2013-01-04 06:36:00,39.1,39.1,30.32,North,352,0.0,0.0,100,0.00,,,0.08,Wunderground v.1.15,2013-01-04 14:36:00,
2013-01-04 06:45:00,39.2,39.2,30.32,North,352,0.0,0.0,100,0.00,,,0.08,Wunderground v.1.15,2013-01-04 14:45:00,
2013-01-04 06:51:00,39.2,38.9,30.32,North,352,0.0,0.0,99,0.00,,,0.08,Wunderground v.1.15,2013-01-04 14:51:00,
2013-01-04 07:01:00,39.3,39.0,30.32,North,352,0.0,0.0,99,0.00,,,0.08,Wunderground v.1.15,2013-01-04 15:01:00,
2013-01-04 07:11:00,39.3,39.3,30.32,North,352,0.0,0.0,100,0.00,,,0.09,Wunderground v.1.15,2013-01-04 15:11:00,
2013-01-04 07:21:00,39.3,39.3,30.32,North,352,0.0,0.0,100,0.00,,,0.09,Wunderground v.1.15,2013-01-04 15:21:00,
2013-01-04 07:25:00,39.3,39.3,30.32,North,353,0.0,0.0,100,0.00,,,0.09,Wunderground v.1.15,2013-01-04 15:25:00,
2013-01-04 07:36:00,39.2,39.2,30.32,North,353,0.0,0.0,100,0.00,,,0.09,Wunderground v.1.15,2013-01-04 15:36:00,
2013-01-04 07:45:00,39.2,39.2,30.32,North,353,0.0,0.0,100,0.00,,,0.09,Wunderground v.1.15,2013-01-04 15:45:00,
2013-01-04 07:50:00,39.3,39.3,30.32,North,353,0.0,0.0,100,0.00,,,0.09,Wunderground v.1.15,2013-01-04 15:50:00,
2013-01-04 08:01:00,39.3,39.3,30.32,North,353,0.0,0.0,100,0.00,,,0.09,Wunderground v.1.15,2013-01-04 16:01:00,
2013-01-04 08:11:00,39.6,39.6,30.32,North,353,0.0,0.0,100,0.00,,,0.09,Wunderground v.1.15,2013-01-04 16:11:00,
2013-01-04 08:21:00,39.9,39.9,30.33,North,353,0.0,0.0,100,0.00,,,0.09,Wunderground v.1.15,2013-01-04 16:21:00,
2013-01-04 08:31:00,40.1,40.1,30.33,North,353,0.0,0.0,100,0.00,,,0.09,Wunderground v.1.15,2013-01-04 16:31:00,
2013-01-04 08:40:00,40.3,40.3,30.34,North,353,0.0,0.0,100,0.00,,,0.09,Wunderground v.1.15,2013-01-04 16:40:00,
2013-01-04 08:46:00,40.3,40.3,30.34,North,353,0.0,0.0,100,0.00,,,0.09,Wunderground v.1.15,2013-01-04 16:46:00,
2013-01-04 08:56:00,40.6,40.6,30.35,North,353,0.0,0.0,100,0.00,,,0.09,Wunderground v.1.15,2013-01-04 16:56:00,
2013-01-04 09:01:00,40.6,40.6,30.35,North,353,0.0,0.0,100,0.00,,,0.09,Wunderground v.1.15,2013-01-04 17:01:00,
2013-01-04 09:10:00,40.9,40.9,30.36,North,353,0.0,0.0,100,0.00,,,0.09,Wunderground v.1.15,2013-01-04 17:10:00,
2013-01-04 09:16:00,41.1,41.1,30.36,North,353,0.0,1.0,100,0.00,,,0.09,Wunderground v.1.15,2013-01-04 17:16:00,
2013-01-04 09:21:00,41.1,41.1,30.36,North,353,1.0,1.0,100,0.00,,,0.09,Wunderground v.1.15,2013-01-04 17:21:00,
2013-01-04 09:31:00,41.5,41.5,30.36,ESE,107,0.0,1.0,100,0.00,,,0.09,Wunderground v.1.15,2013-01-04 17:31:00,
2013-01-04 09:41:00,41.9,41.9,30.37,ESE,107,1.0,1.0,100,0.00,,,0.09,Wunderground v.1.15,2013-01-04 17:41:00,
2013-01-04 09:50:00,42.5,42.5,30.37,North,0,1.0,1.0,100,0.00,,,0.09,Wunderground v.1.15,2013-01-04 17:50:00,
2013-01-04 10:01:00,42.8,42.8,30.37,North,0,0.0,0.0,100,0.00,,,0.09,Wunderground v.1.15,2013-01-04 18:01:00,
2013-01-04 10:10:00,43.2,43.2,30.37,SW,224,1.0,1.0,100,0.00,,,0.09,Wunderground v.1.15,2013-01-04 18:10:00,
2013-01-04 10:16:00,43.3,43.3,30.37,East,89,1.0,1.0,100,0.00,,,0.09,Wunderground v.1.15,2013-01-04 18:16:00,
2013-01-04 10:26:00,43.6,43.6,30.37,North,8,1.0,1.0,100,0.00,,,0.09,Wunderground v.1.15,2013-01-04 18:26:00,
2013-01-04 10:36:00,43.9,43.9,30.37,SSE,151,0.0,1.0,100,0.00,,,0.09,Wunderground v.1.15,2013-01-04 18:36:00,
2013-01-04 10:46:00,44.2,44.2,30.37,SSE,150,0.0,0.0,100,0.00,,,0.09,Wunderground v.1.15,2013-01-04 18:46:00,
2013-01-04 10:56:00,44.5,44.5,30.37,SE,131,0.0,0.0,100,0.00,,,0.09,Wunderground v.1.15,2013-01-04 18:56:00,
2013-01-04 11:11:00,44.6,44.6,30.37,SE,130,0.0,1.0,100,0.00,,,0.09,Wunderground v.1.15,2013-01-04 19:11:00,
2013-01-04 11:21:00,44.8,44.8,30.36,North,3,1.0,1.0,100,0.00,,,0.09,Wunderground v.1.15,2013-01-04 19:21:00,
2013-01-04 11:26:00,44.9,44.9,30.36,South,189,1.0,1.0,100,0.00,,,0.09,Wunderground v.1.15,2013-01-04 19:26:00,
2013-01-04 11:31:00,44.9,44.9,30.36,South,191,1.0,1.0,100,0.00,,,0.09,Wunderground v.1.15,2013-01-04 19:31:00,
2013-01-04 11:36:00,45.1,45.1,30.36,South,174,0.0,1.0,100,0.00,,,0.09,Wunderground v.1.15,2013-01-04 19:36:00,
2013-01-04 11:41:00,45.2,45.2,30.36,South,174,0.0,0.0,100,0.00,,,0.09,Wunderground v.1.15,2013-01-04 19:41:00,
2013-01-04 11:46:00,45.4,45.4,30.36,East,100,0.0,0.0,100,0.00,,,0.09,Wunderground v.1.15,2013-01-04 19:46:00,
2013-01-04 11:56:00,45.7,45.7,30.36,ESE,121,1.0,1.0,100,0.00,,,0.09,Wunderground v.1.15,2013-01-04 19:56:00,
2013-01-04 12:11:00,46.0,46.0,30.36,SSE,148,0.0,0.0,100,0.00,,,0.09,Wunderground v.1.15,2013-01-04 20:11:00,
2013-01-04 12:21:00,46.2,46.2,30.35,SSE,147,0.0,0.0,100,0.00,,,0.09,Wunderground v.1.15,2013-01-04 20:21:00,
2013-01-04 12:31:00,46.5,46.5,30.35,ENE,75,0.0,0.0,100,0.00,,,0.09,Wunderground v.1.15,2013-01-04 20:31:00,
2013-01-04 12:36:00,46.5,46.5,30.35,ENE,75,0.0,0.0,100,0.00,,,0.09,Wunderground v.1.15,2013-01-04 20:36:00,
2013-01-04 12:46:00,46.5,46.5,30.35,ENE,75,0.0,0.0,100,0.00,,,0.09,Wunderground v.1.15,2013-01-04 20:46:00,
2013-01-04 12:51:00,46.5,46.5,30.35,ENE,75,0.0,0.0,100,0.00,,,0.09,Wunderground v.1.15,2013-01-04 20:51:00,
2013-01-04 13:01:00,46.7,46.7,30.35,ENE,75,0.0,1.0,100,0.00,,,0.09,Wunderground v.1.15,2013-01-04 21:01:00,
2013-01-04 13:11:00,46.7,46.7,30.34,NE,42,0.0,1.0,100,0.00,,,0.09,Wunderground v.1.15,2013-01-04 21:11:00,
2013-01-04 13:21:00,46.7,46.7,30.34,NE,40,0.0,0.0,100,0.00,,,0.09,Wunderground v.1.15,2013-01-04 21:21:00,
2013-01-04 13:26:00,46.5,46.5,30.34,ESE,109,0.0,0.0,100,0.00,,,0.09,Wunderground v.1.15,2013-01-04 21:26:00,
2013-01-04 13:36:00,46.8,46.8,30.34,ESE,109,0.0,0.0,100,0.00,,,0.09,Wunderground v.1.15,2013-01-04 21:36:00,
2013-01-04 13:46:00,47.0,47.0,30.34,ESE,109,0.0,0.0,100,0.00,,,0.09,Wunderground v.1.15,2013-01-04 21:46:00,
2013-01-04 13:51:00,47.0,47.0,30.33,ESE,109,0.0,0.0,100,0.00,,,0.09,Wunderground v.1.15,2013-01-04 21:51:00,
2013-01-04 14:01:00,46.8,46.5,30.33,ESE,109,0.0,0.0,99,0.00,,,0.09,Wunderground v.1.15,2013-01-04 22:01:00,
2013-01-04 14:11:00,46.7,46.2,30.33,ESE,109,0.0,0.0,98,0.00,,,0.09,Wunderground v.1.15,2013-01-04 22:11:00,
2013-01-04 14:21:00,46.5,45.7,30.32,ESE,109,0.0,0.0,97,0.00,,,0.09,Wunderground v.1.15,2013-01-04 22:21:00,
2013-01-04 14:30:00,46.4,45.3,30.32,ESE,109,0.0,0.0,96,0.00,,,0.09,Wunderground v.1.15,2013-01-04 22:30:00,
2013-01-04 14:36:00,46.2,44.8,30.32,ESE,109,0.0,0.0,95,0.00,,,0.09,Wunderground v.1.15,2013-01-04 22:36:00,
2013-01-04 14:46:00,46.1,44.7,30.32,ESE,109,0.0,0.0,95,0.00,,,0.09,Wunderground v.1.15,2013-01-04 22:46:00,
2013-01-04 14:56:00,45.8,44.4,30.32,ESE,109,0.0,0.0,95,0.00,,,0.09,Wunderground v.1.15,2013-01-04 22:56:00,
2013-01-04 15:11:00,45.5,44.2,30.32,ESE,109,0.0,0.0,95,0.00,,,0.09,Wunderground v.1.15,2013-01-04 23:11:00,
2013-01-04 15:21:00,45.4,44.3,30.32,ESE,109,0.0,0.0,96,0.00,,,0.09,Wunderground v.1.15,2013-01-04 23:21:00,
2013-01-04 15:31:00,45.2,44.4,30.32,ESE,109,0.0,0.0,97,0.00,,,0.09,Wunderground v.1.15,2013-01-04 23:31:00,
2013-01-04 15:36:00,45.2,44.4,30.32,ESE,109,0.0,0.0,97,0.00,,,0.09,Wunderground v.1.15,2013-01-04 23:36:00,
2013-01-04 15:46:00,45.1,44.3,30.32,ESE,109,0.0,0.0,97,0.00,,,0.09,Wunderground v.1.15,2013-01-04 23:46:00,
2013-01-04 15:56:00,44.8,44.0,30.32,ESE,109,0.0,0.0,97,0.00,,,0.09,Wunderground v.1.15,2013-01-04 23:56:00,
2013-01-04 16:06:00,44.5,43.7,30.31,ESE,109,0.0,0.0,97,0.00,,,0.09,Wunderground v.1.15,2013-01-05 00:06:00,
2013-01-04 16:16:00,44.1,43.0,30.31,ESE,109,0.0,0.0,96,0.00,,,0.09,Wunderground v.1.15,2013-01-05 00:16:00,
2013-01-04 16:26:00,43.8,42.7,30.32,ESE,109,0.0,0.0,96,0.00,,,0.09,Wunderground v.1.15,2013-01-05 00:26:00,
2013-01-04 16:35:00,43.2,42.1,30.32,ESE,109,0.0,0.0,96,0.00,,,0.09,Wunderground v.1.15,2013-01-05 00:35:00,
2013-01-04 16:46:00,42.8,41.7,30.32,ESE,109,0.0,0.0,96,0.00,,,0.09,Wunderground v.1.15,2013-01-05 00:46:00,
2013-01-04 16:51:00,42.6,41.8,30.31,ESE,109,0.0,0.0,97,0.00,,,0.09,Wunderground v.1.15,2013-01-05 00:51:00,
2013-01-04 17:01:00,42.2,41.4,30.31,ESE,109,0.0,0.0,97,0.00,,,0.09,Wunderground v.1.15,2013-01-05 01:01:00,
2013-01-04 17:11:00,42.1,41.3,30.30,ESE,109,0.0,0.0,97,0.00,,,0.09,Wunderground v.1.15,2013-01-05 01:11:00,
2013-01-04 17:21:00,41.8,41.0,30.30,ESE,109,0.0,0.0,97,0.00,,,0.09,Wunderground v.1.15,2013-01-05 01:21:00,
2013-01-04 17:31:00,41.8,41.3,30.30,NE,47,0.0,0.0,98,0.00,,,0.09,Wunderground v.1.15,2013-01-05 01:31:00,
2013-01-04 17:41:00,41.8,41.3,30.29,NE,47,0.0,0.0,98,0.00,,,0.09,Wunderground v.1.15,2013-01-05 01:41:00,
2013-01-04 17:50:00,41.6,41.1,30.28,NE,47,0.0,0.0,98,0.00,,,0.09,Wunderground v.1.15,2013-01-05 01:50:00,
2013-01-04 17:56:00,41.6,41.1,30.28,NE,47,0.0,0.0,98,0.00,,,0.09,Wunderground v.1.15,2013-01-05 01:56:00,
2013-01-04 18:11:00,41.5,41.2,30.27,NE,47,0.0,0.0,99,0.00,,,0.09,Wunderground v.1.15,2013-01-05 02:11:00,
2013-01-04 18:20:00,41.3,41.0,30.27,NE,47,0.0,0.0,99,0.00,,,0.09,Wunderground v.1.15,2013-01-05 02:20:00,
2013-01-04 18:26:00,41.3,41.0,30.27,NE,47,0.0,0.0,99,0.00,,,0.09,Wunderground v.1.15,2013-01-05 02:26:00,
2013-01-04 18:36:00,41.2,40.9,30.27,NE,47,0.0,0.0,99,0.00,,,0.09,Wunderground v.1.15,2013-01-05 02:36:00,
2013-01-04 18:46:00,41.1,40.8,30.27,NE,47,0.0,0.0,99,0.00,,,0.09,Wunderground v.1.15,2013-01-05 02:46:00,
2013-01-04 18:55:00,40.8,40.5,30.27,NE,47,0.0,0.0,99,0.00,,,0.09,Wunderground v.1.15,2013-01-05 02:55:00,
2013-01-04 19:11:00,40.6,40.3,30.27,NE,47,0.0,0.0,99,0.00,,,0.09,Wunderground v.1.15,2013-01-05 03:11:00,
2013-01-04 19:21:00,40.5,40.2,30.26,NE,47,0.0,0.0,99,0.00,,,0.09,Wunderground v.1.15,2013-01-05 03:21:00,
2013-01-04 19:26:00,40.5,40.2,30.26,NE,47,0.0,0.0,99,0.00,,,0.09,Wunderground v.1.15,2013-01-05 03:26:00,
2013-01-04 19:36:00,40.3,40.0,30.26,NE,47,0.0,0.0,99,0.00,,,0.09,Wunderground v.1.15,2013-01-05 03:36:00,
2013-01-04 19:46:00,40.2,39.9,30.26,NE,47,0.0,0.0,99,0.00,,,0.09,Wunderground v.1.15,2013-01-05 03:46:00,
2013-01-04 19:56:00,39.9,39.6,30.26,NE,47,0.0,0.0,99,0.00,,,0.09,Wunderground v.1.15,2013-01-05 03:56:00,
2013-01-04 20:11:00,39.8,39.5,30.26,NE,47,0.0,0.0,99,0.00,,,0.09,Wunderground v.1.15,2013-01-05 04:11:00,
2013-01-04 20:21:00,39.6,39.3,30.25,NE,47,0.0,0.0,99,0.00,,,0.09,Wunderground v.1.15,2013-01-05 04:21:00,
2013-01-04 20:31:00,39.5,39.2,30.25,NE,47,0.0,0.0,99,0.00,,,0.09,Wunderground v.1.15,2013-01-05 04:31:00,
2013-01-04 20:41:00,39.2,38.9,30.25,NE,47,0.0,0.0,99,0.00,,,0.09,Wunderground v.1.15,2013-01-05 04:41:00,
2013-01-04 20:51:00,39.2,38.9,30.25,NE,47,0.0,0.0,99,0.00,,,0.09,Wunderground v.1.15,2013-01-05 04:51:00,
2013-01-04 21:01:00,39.2,38.9,30.25,NE,47,0.0,0.0,99,0.00,,,0.09,Wunderground v.1.15,2013-01-05 05:01:00,
2013-01-04 21:11:00,39.3,39.0,30.25,NE,47,0.0,0.0,99,0.00,,,0.09,Wunderground v.1.15,2013-01-05 05:11:00,
2013-01-04 21:16:00,39.3,39.0,30.25,NE,47,0.0,0.0,99,0.00,,,0.09,Wunderground v.1.15,2013-01-05 05:16:00,
2013-01-04 21:20:00,39.3,39.0,30.25,NE,47,0.0,0.0,99,0.00,,,0.09,Wunderground v.1.15,2013-01-05 05:20:00,
2013-01-04 21:26:00,39.3,39.0,30.25,NE,47,0.0,0.0,99,0.00,,,0.09,Wunderground v.1.15,2013-01-05 05:26:00,
2013-01-04 21:36:00,39.2,38.9,30.25,NE,47,0.0,0.0,99,0.00,,,0.09,Wunderground v.1.15,2013-01-05 05:36:00,
2013-01-04 21:46:00,39.1,38.8,30.25,NE,47,0.0,0.0,99,0.00,,,0.09,Wunderground v.1.15,2013-01-05 05:46:00,
2013-01-04 21:55:00,38.9,38.6,30.25,NE,47,0.0,0.0,99,0.00,,,0.09,Wunderground v.1.15,2013-01-05 05:55:00,
2013-01-04 22:01:00,38.9,38.6,30.25,NE,47,0.0,0.0,99,0.00,,,0.09,Wunderground v.1.15,2013-01-05 06:01:00,
2013-01-04 22:11:00,38.8,38.5,30.24,NE,47,0.0,0.0,99,0.00,,,0.09,Wunderground v.1.15,2013-01-05 06:11:00,
2013-01-04 22:21:00,38.8,38.5,30.24,NE,47,0.0,0.0,99,0.00,,,0.09,Wunderground v.1.15,2013-01-05 06:21:00,
2013-01-04 22:26:00,38.8,38.5,30.24,NE,47,0.0,0.0,99,0.00,,,0.09,Wunderground v.1.15,2013-01-05 06:26:00,
2013-01-04 22:36:00,38.6,38.3,30.24,NE,47,0.0,0.0,99,0.00,,,0.09,Wunderground v.1.15,2013-01-05 06:36:00,
2013-01-04 22:46:00,38.6,38.3,30.24,NE,47,0.0,0.0,99,0.00,,,0.09,Wunderground v.1.15,2013-01-05 06:46:00,
2013-01-04 22:56:00,38.6,38.3,30.24,NE,47,0.0,0.0,99,0.00,,,0.09,Wunderground v.1.15,2013-01-05 06:56:00,
2013-01-04 23:11:00,38.6,38.3,30.24,NE,47,0.0,0.0,99,0.00,,,0.09,Wunderground v.1.15,2013-01-05 07:11:00,
2013-01-04 23:20:00,38.6,38.3,30.23,NE,47,0.0,0.0,99,0.00,,,0.09,Wunderground v.1.15,2013-01-05 07:20:00,
2013-01-04 23:25:00,38.6,38.3,30.23,NE,47,0.0,0.0,99,0.00,,,0.09,Wunderground v.1.15,2013-01-05 07:25:00,
2013-01-04 23:31:00,38.6,38.3,30.23,NE,47,0.0,0.0,99,0.00,,,0.09,Wunderground v.1.15,2013-01-05 07:31:00,
2013-01-04 23:40:00,38.6,38.3,30.23,NE,47,0.0,0.0,99,0.00,,,0.09,Wunderground v.1.15,2013-01-05 07:40:00,
2013-01-04 23:46:00,38.5,38.2,30.23,NE,47,0.0,0.0,99,0.00,,,0.09,Wunderground v.1.15,2013-01-05 07:46:00,
2013-01-04 23:56:00,38.5,38.2,30.23,NE,47,0.0,0.0,99,0.00,,,0.09,Wunderground v.1.15,2013-01-05 07:56:00,